Time;durP1;ratioP1;P1;durP2;ratioP2;P2;SDS_P1;SDS_P2;PMS_P1;PMS_P2;Temp;Humidity;BMP_temperature;BMP_pressure;BME280_temperature;BME280_humidity;BME280_pressure;Samples;Min_cycle;Max_cycle;Signal;HPM_P1;HPM_P2
2022/11/19 00:02:41;;;;;;;6.83;3.47;;;;;;;;;;5064266;28;20021;-65
2022/11/19 00:05:25;;;;;;;4.90;2.70;;;;;;;;;;5064203;28;20025;-64
2022/11/19 00:08:09;;;;;;;9.77;3.90;;;;;;;;;;5067273;28;20036;-64
2022/11/19 00:10:52;;;;;;;7.07;3.63;;;;;;;;;;5067465;28;20028;-67
2022/11/19 00:13:36;;;;;;;7.77;4.10;;;;;;;;;;5066026;28;20024;-67
2022/11/19 00:16:20;;;;;;;8.13;3.63;;;;;;;;;;5069362;28;20016;-68
2022/11/19 00:19:04;;;;;;;10.37;5.30;;;;;;;;;;5065359;28;20915;-64
2022/11/19 00:21:49;;;;;;;151.37;9.43;;;;;;;;;;5053691;28;20021;-68
2022/11/19 00:24:32;;;;;;;215.00;9.93;;;;;;;;;;5061999;28;20262;-67
2022/11/19 00:27:16;;;;;;;8.73;3.60;;;;;;;;;;5056994;28;20030;-67
2022/11/19 00:30:00;;;;;;;6.47;3.20;;;;;;;;;;5058966;28;20108;-64
2022/11/19 00:32:44;;;;;;;8.47;4.83;;;;;;;;;;5050261;28;20027;-66
2022/11/19 00:35:28;;;;;;;9.37;4.60;;;;;;;;;;5063211;28;20028;-66
2022/11/19 00:38:11;;;;;;;11.37;3.90;;;;;;;;;;5064097;28;20025;-65
2022/11/19 00:40:55;;;;;;;7.37;3.27;;;;;;;;;;5071340;28;20263;-65
2022/11/19 00:43:45;;;;;;;10.63;5.30;;;;;;;;;;5068635;28;20027;-64
2022/11/19 00:46:29;;;;;;;6.50;2.73;;;;;;;;;;5067394;28;20275;-65
2022/11/19 00:49:13;;;;;;;10.70;5.03;;;;;;;;;;5068631;28;20074;-65
2022/11/19 00:51:57;;;;;;;8.90;3.27;;;;;;;;;;5069928;28;20303;-66
2022/11/19 00:54:41;;;;;;;9.30;3.53;;;;;;;;;;5070217;28;20314;-65
2022/11/19 00:57:24;;;;;;;6.50;3.07;;;;;;;;;;5071116;28;20020;-66
2022/11/19 01:00:08;;;;;;;8.80;3.40;;;;;;;;;;5069235;28;20286;-65
2022/11/19 01:02:52;;;;;;;7.57;2.80;;;;;;;;;;5063912;28;20483;-66
2022/11/19 01:05:36;;;;;;;7.60;3.43;;;;;;;;;;5070909;28;20273;-65
2022/11/19 01:08:19;;;;;;;7.23;3.73;;;;;;;;;;5068772;28;20282;-65
2022/11/19 01:11:03;;;;;;;8.17;4.07;;;;;;;;;;5068038;28;20044;-65
2022/11/19 01:13:47;;;;;;;5.80;2.83;;;;;;;;;;5068209;28;20023;-66
2022/11/19 01:16:31;;;;;;;5.80;3.00;;;;;;;;;;5066060;28;20032;-65
2022/11/19 01:19:15;;;;;;;5.30;2.83;;;;;;;;;;5070929;28;20032;-66
2022/11/19 01:21:59;;;;;;;6.70;3.73;;;;;;;;;;5068254;28;20021;-65
2022/11/19 01:24:42;;;;;;;5.03;2.73;;;;;;;;;;5069410;28;20275;-65
2022/11/19 01:27:26;;;;;;;6.03;3.73;;;;;;;;;;5066474;28;20453;-65
2022/11/19 01:30:10;;;;;;;8.27;4.03;;;;;;;;;;5069115;28;20028;-65
2022/11/19 01:32:54;;;;;;;8.73;4.17;;;;;;;;;;5065152;28;20031;-65
2022/11/19 01:35:37;;;;;;;4.10;2.17;;;;;;;;;;5064671;28;20028;-65
2022/11/19 01:38:21;;;;;;;6.37;3.33;;;;;;;;;;5062149;28;20025;-66
2022/11/19 01:41:05;;;;;;;6.97;3.67;;;;;;;;;;5066642;28;20290;-64
2022/11/19 01:43:48;;;;;;;8.17;3.13;;;;;;;;;;5068307;28;20104;-66
2022/11/19 01:46:32;;;;;;;5.33;2.63;;;;;;;;;;5061221;28;20078;-65
2022/11/19 01:49:16;;;;;;;6.13;3.20;;;;;;;;;;5065759;28;20534;-65
2022/11/19 01:52:00;;;;;;;7.33;3.60;;;;;;;;;;5069708;28;20861;-66
2022/11/19 01:54:44;;;;;;;4.33;2.27;;;;;;;;;;5070544;28;20027;-65
2022/11/19 01:57:27;;;;;;;8.60;4.53;;;;;;;;;;5061136;28;20027;-64
2022/11/19 02:00:11;;;;;;;11.47;4.47;;;;;;;;;;5066367;28;20086;-65
2022/11/19 02:02:55;;;;;;;9.50;4.43;;;;;;;;;;5073407;28;20538;-63
2022/11/19 02:05:39;;;;;;;6.50;3.43;;;;;;;;;;5069423;28;20276;-64
2022/11/19 02:08:22;;;;;;;9.17;4.30;;;;;;;;;;5063636;28;20293;-63
2022/11/19 02:11:06;;;;;;;7.33;3.63;;;;;;;;;;5067635;28;20365;-63
2022/11/19 02:13:50;;;;;;;9.33;3.77;;;;;;;;;;5074446;28;20107;-63
2022/11/19 02:16:34;;;;;;;9.40;4.47;;;;;;;;;;5067430;28;20363;-63
2022/11/19 02:19:17;;;;;;;7.80;4.00;;;;;;;;;;5077188;28;20032;-63
2022/11/19 02:22:01;;;;;;;6.23;3.13;;;;;;;;;;5068460;28;20274;-63
2022/11/19 02:24:45;;;;;;;6.93;3.57;;;;;;;;;;5073148;28;20271;-63
2022/11/19 02:27:29;;;;;;;8.17;3.73;;;;;;;;;;5066064;28;20282;-63
2022/11/19 02:30:15;;;;;;;6.50;3.40;;;;;;;;;;5072329;28;20282;-62
2022/11/19 02:32:59;;;;;;;11.07;5.70;;;;;;;;;;5074548;28;20302;-62
2022/11/19 02:35:43;;;;;;;10.63;5.50;;;;;;;;;;5070559;28;20031;-62
2022/11/19 02:38:26;;;;;;;9.50;4.23;;;;;;;;;;5067852;28;20317;-63
2022/11/19 02:47:16;;;;;;;11.23;5.63;;;;;;;;;;5068076;28;20323;-63
2022/11/19 02:50:00;;;;;;;10.93;5.87;;;;;;;;;;5071967;28;20287;-64
2022/11/19 02:52:44;;;;;;;12.33;4.60;;;;;;;;;;5072006;28;20435;-62
2022/11/19 02:55:27;;;;;;;10.20;4.00;;;;;;;;;;5074851;28;20725;-62
2022/11/19 03:04:28;;;;;;;13.00;4.87;;;;;;;;;;5071605;28;20808;-63
2022/11/19 03:04:30;;;;;;;8.47;3.97;;;;;;;;;;5067847;28;20336;-63
2022/11/19 03:07:14;;;;;;;9.57;4.93;;;;;;;;;;5066792;28;20622;-62
2022/11/19 03:09:58;;;;;;;8.87;4.27;;;;;;;;;;5067584;28;20297;-63
2022/11/19 03:12:41;;;;;;;9.67;4.37;;;;;;;;;;5064329;28;20337;-62
2022/11/19 03:18:28;;;;;;;10.80;5.27;;;;;;;;;;5068085;28;20761;-64
2022/11/19 03:21:13;;;;;;;10.87;4.97;;;;;;;;;;5065964;28;20742;-63
2022/11/19 03:23:56;;;;;;;10.67;4.17;;;;;;;;;;5069282;28;20279;-63
2022/11/19 03:26:40;;;;;;;15.77;5.60;;;;;;;;;;5067655;28;20294;-62
2022/11/19 03:29:24;;;;;;;7.97;4.33;;;;;;;;;;5069218;28;20294;-63
2022/11/19 03:32:08;;;;;;;6.60;3.43;;;;;;;;;;5069773;28;20299;-63
2022/11/19 03:34:51;;;;;;;13.27;5.77;;;;;;;;;;5069163;28;20290;-63
2022/11/19 03:37:37;;;;;;;9.23;4.37;;;;;;;;;;5072269;28;20711;-63
2022/11/19 03:40:21;;;;;;;10.73;5.03;;;;;;;;;;5069123;28;20678;-63
2022/11/19 03:43:05;;;;;;;10.83;4.87;;;;;;;;;;5072728;28;20774;-63
2022/11/19 03:45:49;;;;;;;14.40;5.33;;;;;;;;;;5066245;28;20337;-62
2022/11/19 03:48:33;;;;;;;12.33;5.83;;;;;;;;;;5071837;28;20251;-63
2022/11/19 03:51:16;;;;;;;9.60;4.70;;;;;;;;;;5063986;28;20279;-65
2022/11/19 03:54:00;;;;;;;11.70;5.23;;;;;;;;;;5066925;28;20271;-65
2022/11/19 03:56:44;;;;;;;12.90;6.30;;;;;;;;;;5071502;28;20321;-65
2022/11/19 03:59:28;;;;;;;11.60;5.53;;;;;;;;;;5068801;28;20274;-64
2022/11/19 04:02:12;;;;;;;11.90;6.33;;;;;;;;;;5063401;28;20318;-65
2022/11/19 04:04:56;;;;;;;11.70;5.93;;;;;;;;;;5071709;28;20278;-64
2022/11/19 04:07:39;;;;;;;10.00;4.17;;;;;;;;;;5068797;28;20271;-65
2022/11/19 04:10:23;;;;;;;16.33;6.87;;;;;;;;;;5070485;28;20297;-64
2022/11/19 04:13:07;;;;;;;14.80;7.07;;;;;;;;;;5070753;28;20291;-64
2022/11/19 04:15:51;;;;;;;15.10;7.53;;;;;;;;;;5071467;28;20394;-64
2022/11/19 04:18:34;;;;;;;13.47;6.50;;;;;;;;;;5072146;28;20273;-64
2022/11/19 04:21:18;;;;;;;13.27;6.87;;;;;;;;;;5065374;28;20275;-64
2022/11/19 04:24:02;;;;;;;16.57;8.10;;;;;;;;;;5070049;28;20337;-64
2022/11/19 04:26:46;;;;;;;16.50;8.10;;;;;;;;;;5069986;28;20270;-64
2022/11/19 04:29:30;;;;;;;14.33;6.07;;;;;;;;;;5072359;28;20380;-64
2022/11/19 04:32:14;;;;;;;14.60;7.10;;;;;;;;;;5067198;28;20363;-64
2022/11/19 04:34:57;;;;;;;18.40;8.10;;;;;;;;;;5068370;28;20286;-64
2022/11/19 04:37:41;;;;;;;14.93;7.53;;;;;;;;;;5066201;28;20325;-64
2022/11/19 04:40:25;;;;;;;10.27;5.13;;;;;;;;;;5074662;28;20293;-64
2022/11/19 04:43:09;;;;;;;16.03;7.53;;;;;;;;;;5071575;28;20274;-64
2022/11/19 04:45:53;;;;;;;14.70;6.67;;;;;;;;;;5069208;28;20271;-64
2022/11/19 04:48:38;;;;;;;11.37;4.83;;;;;;;;;;5071154;28;20287;-64
2022/11/19 04:51:22;;;;;;;15.30;7.13;;;;;;;;;;5067230;28;20271;-64
2022/11/19 04:54:07;;;;;;;11.37;5.03;;;;;;;;;;5069266;28;20271;-64
2022/11/19 04:56:51;;;;;;;13.37;6.43;;;;;;;;;;5069326;28;20362;-64
2022/11/19 04:59:35;;;;;;;15.40;7.00;;;;;;;;;;5069636;28;20409;-64
2022/11/19 05:02:18;;;;;;;7.83;3.83;;;;;;;;;;5063807;28;20341;-65
2022/11/19 05:05:02;;;;;;;14.37;6.50;;;;;;;;;;5069038;28;20773;-64
2022/11/19 05:07:46;;;;;;;15.23;6.37;;;;;;;;;;5069341;28;20604;-64
2022/11/19 05:10:30;;;;;;;12.13;5.93;;;;;;;;;;5068550;28;20638;-64
2022/11/19 05:13:14;;;;;;;15.60;7.47;;;;;;;;;;5069859;28;20336;-64
2022/11/19 05:15:57;;;;;;;16.13;7.67;;;;;;;;;;5066120;28;20721;-64
2022/11/19 05:18:41;;;;;;;16.37;8.87;;;;;;;;;;5069725;28;20278;-64
2022/11/19 05:21:26;;;;;;;18.03;8.37;;;;;;;;;;5068685;28;20409;-64
2022/11/19 05:24:10;;;;;;;19.10;7.57;;;;;;;;;;5062179;28;20274;-64
2022/11/19 05:26:54;;;;;;;15.87;7.90;;;;;;;;;;5067850;28;20278;-64
2022/11/19 05:29:37;;;;;;;15.23;6.73;;;;;;;;;;5074856;28;20333;-64
2022/11/19 05:32:21;;;;;;;15.57;8.20;;;;;;;;;;5062790;28;21480;-64
2022/11/19 05:35:05;;;;;;;14.90;7.33;;;;;;;;;;5063527;28;20267;-64
2022/11/19 05:37:49;;;;;;;16.43;8.67;;;;;;;;;;5064650;28;20378;-64
2022/11/19 05:40:33;;;;;;;14.73;6.30;;;;;;;;;;5069296;28;20321;-64
2022/11/19 05:43:16;;;;;;;15.10;7.20;;;;;;;;;;5067346;28;20769;-64
2022/11/19 05:46:00;;;;;;;16.80;8.27;;;;;;;;;;5067460;28;20270;-64
2022/11/19 05:48:44;;;;;;;17.03;8.33;;;;;;;;;;5070511;28;20890;-64
2022/11/19 05:51:28;;;;;;;14.40;7.57;;;;;;;;;;5067689;28;20271;-64
2022/11/19 05:54:11;;;;;;;15.43;7.30;;;;;;;;;;5067407;28;20737;-64
2022/11/19 05:56:55;;;;;;;17.83;9.33;;;;;;;;;;5062483;28;20320;-64
2022/11/19 05:59:39;;;;;;;16.13;8.50;;;;;;;;;;5060147;28;20279;-64
2022/11/19 06:02:23;;;;;;;16.17;8.50;;;;;;;;;;5069514;28;20642;-64
2022/11/19 06:05:07;;;;;;;14.23;6.43;;;;;;;;;;5068275;28;20314;-64
2022/11/19 06:07:51;;;;;;;18.50;8.50;;;;;;;;;;5064725;28;20321;-64
2022/11/19 06:10:34;;;;;;;17.53;8.20;;;;;;;;;;5067078;28;20279;-64
2022/11/19 06:13:18;;;;;;;17.70;8.27;;;;;;;;;;5066323;28;20262;-64
2022/11/19 06:16:02;;;;;;;10.80;5.20;;;;;;;;;;5069071;28;20282;-64
2022/11/19 06:18:46;;;;;;;13.47;6.10;;;;;;;;;;5063471;28;20271;-64
2022/11/19 06:21:30;;;;;;;16.73;7.73;;;;;;;;;;5066568;28;20346;-64
2022/11/19 06:24:14;;;;;;;17.90;8.40;;;;;;;;;;5066349;28;20275;-64
2022/11/19 06:26:58;;;;;;;18.60;6.77;;;;;;;;;;5065401;28;20357;-64
2022/11/19 06:29:42;;;;;;;15.07;6.87;;;;;;;;;;5060932;28;20373;-64
2022/11/19 06:32:26;;;;;;;15.10;7.97;;;;;;;;;;5063687;28;20272;-64
2022/11/19 06:35:10;;;;;;;15.40;7.50;;;;;;;;;;5064906;28;20278;-64
2022/11/19 06:37:54;;;;;;;16.77;8.00;;;;;;;;;;5066226;28;20785;-64
2022/11/19 06:40:38;;;;;;;17.30;7.77;;;;;;;;;;5061404;28;20693;-64
2022/11/19 06:43:22;;;;;;;16.93;8.27;;;;;;;;;;5064438;28;20275;-64
2022/11/19 06:46:05;;;;;;;18.30;8.60;;;;;;;;;;5069873;28;20357;-64
2022/11/19 06:48:49;;;;;;;17.33;8.73;;;;;;;;;;5073998;28;20269;-64
2022/11/19 06:51:33;;;;;;;16.47;7.40;;;;;;;;;;5066695;28;20354;-64
2022/11/19 06:54:17;;;;;;;15.07;7.60;;;;;;;;;;5065429;28;20279;-64
2022/11/19 06:57:01;;;;;;;16.73;8.90;;;;;;;;;;5071422;28;20275;-64
2022/11/19 06:59:44;;;;;;;16.53;8.27;;;;;;;;;;5072599;28;20266;-65
2022/11/19 07:02:28;;;;;;;17.03;8.30;;;;;;;;;;5060431;28;20773;-65
2022/11/19 07:05:12;;;;;;;19.03;7.80;;;;;;;;;;5072609;28;20275;-64
2022/11/19 07:07:56;;;;;;;14.77;7.00;;;;;;;;;;5069677;28;20860;-64
2022/11/19 07:10:40;;;;;;;17.67;8.43;;;;;;;;;;5063502;28;20413;-64
2022/11/19 07:13:23;;;;;;;18.30;8.50;;;;;;;;;;5061391;28;20320;-65
2022/11/19 07:16:07;;;;;;;15.20;7.23;;;;;;;;;;5061852;28;20266;-64
2022/11/19 07:18:51;;;;;;;15.07;8.07;;;;;;;;;;5069431;28;20634;-64
2022/11/19 07:21:35;;;;;;;16.63;8.33;;;;;;;;;;5071050;28;20269;-65
2022/11/19 07:24:19;;;;;;;18.73;8.37;;;;;;;;;;5065107;28;20390;-64
2022/11/19 07:27:03;;;;;;;17.27;7.80;;;;;;;;;;5073251;28;21073;-65
2022/11/19 07:29:46;;;;;;;12.53;6.37;;;;;;;;;;5072104;28;20352;-64
2022/11/19 07:32:30;;;;;;;15.57;8.03;;;;;;;;;;5057720;28;20345;-64
2022/11/19 07:35:14;;;;;;;17.43;8.70;;;;;;;;;;5067134;28;20279;-64
2022/11/19 07:37:58;;;;;;;13.80;6.50;;;;;;;;;;5065996;28;20662;-64
2022/11/19 07:40:41;;;;;;;15.10;7.80;;;;;;;;;;5072093;28;20302;-64
2022/11/19 07:43:25;;;;;;;16.03;7.50;;;;;;;;;;5068017;28;20353;-65
2022/11/19 07:46:09;;;;;;;16.10;8.30;;;;;;;;;;5069891;28;20281;-65
2022/11/19 07:48:53;;;;;;;15.50;8.27;;;;;;;;;;5066289;28;20358;-64
2022/11/19 07:51:37;;;;;;;15.70;8.00;;;;;;;;;;5064854;28;20709;-64
2022/11/19 07:54:21;;;;;;;15.80;7.97;;;;;;;;;;5065317;28;20278;-64
2022/11/19 07:57:05;;;;;;;17.53;8.17;;;;;;;;;;5065446;28;20305;-65
2022/11/19 07:59:48;;;;;;;12.67;6.23;;;;;;;;;;5063510;28;20271;-64
2022/11/19 08:02:32;;;;;;;13.90;6.97;;;;;;;;;;5050844;28;20762;-64
2022/11/19 08:05:16;;;;;;;14.43;8.17;;;;;;;;;;5071546;28;20115;-65
2022/11/19 08:08:00;;;;;;;13.67;7.27;;;;;;;;;;5070260;28;20036;-65
2022/11/19 08:10:45;;;;;;;14.17;7.33;;;;;;;;;;5072052;28;20021;-65
2022/11/19 08:13:28;;;;;;;12.43;6.53;;;;;;;;;;5072547;28;20051;-64
2022/11/19 08:16:12;;;;;;;14.23;7.27;;;;;;;;;;5073415;28;20099;-65
2022/11/19 08:18:56;;;;;;;11.40;6.40;;;;;;;;;;5070343;28;20050;-65
2022/11/19 08:21:40;;;;;;;14.73;7.17;;;;;;;;;;5070435;28;20040;-65
2022/11/19 08:24:24;;;;;;;13.10;6.63;;;;;;;;;;5067634;28;20063;-65
2022/11/19 08:27:08;;;;;;;14.43;7.70;;;;;;;;;;5074395;28;20383;-65
2022/11/19 08:29:51;;;;;;;17.00;7.33;;;;;;;;;;5069700;28;20091;-65
2022/11/19 08:32:36;;;;;;;13.80;5.97;;;;;;;;;;5068373;28;20037;-65
2022/11/19 08:35:20;;;;;;;13.17;7.20;;;;;;;;;;5067104;28;20024;-65
2022/11/19 08:38:04;;;;;;;14.43;6.90;;;;;;;;;;5061874;28;20391;-64
2022/11/19 08:40:48;;;;;;;13.20;6.43;;;;;;;;;;5068174;28;20025;-64
2022/11/19 08:43:32;;;;;;;35.17;7.80;;;;;;;;;;5067076;28;20490;-65
2022/11/19 08:46:16;;;;;;;14.67;7.70;;;;;;;;;;5068961;28;20031;-64
2022/11/19 08:48:59;;;;;;;12.80;6.73;;;;;;;;;;5072772;28;20028;-64
2022/11/19 08:51:43;;;;;;;25.07;8.30;;;;;;;;;;5066274;28;20949;-64
2022/11/19 08:54:27;;;;;;;13.17;6.17;;;;;;;;;;5065216;28;20024;-64
2022/11/19 08:57:11;;;;;;;11.87;6.67;;;;;;;;;;5070040;28;20369;-64
2022/11/19 08:59:55;;;;;;;12.53;6.60;;;;;;;;;;5066339;28;20025;-64
2022/11/19 09:02:38;;;;;;;16.27;7.10;;;;;;;;;;5072880;28;20065;-65
2022/11/19 09:05:22;;;;;;;12.77;7.27;;;;;;;;;;5066834;28;20031;-64
2022/11/19 09:08:06;;;;;;;14.30;6.87;;;;;;;;;;5067172;28;20043;-64
2022/11/19 09:10:50;;;;;;;22.30;7.80;;;;;;;;;;5065895;28;20433;-63
2022/11/19 09:13:34;;;;;;;14.40;7.47;;;;;;;;;;5067620;28;20747;-64
2022/11/19 09:16:18;;;;;;;12.53;6.70;;;;;;;;;;5063412;28;20412;-64
2022/11/19 09:19:01;;;;;;;12.90;6.47;;;;;;;;;;5056823;28;20039;-64
2022/11/19 09:21:45;;;;;;;13.47;7.47;;;;;;;;;;5071954;28;20023;-64
2022/11/19 09:24:29;;;;;;;10.70;5.43;;;;;;;;;;5069111;28;20488;-64
2022/11/19 09:27:13;;;;;;;14.70;5.77;;;;;;;;;;5070863;28;20523;-64
2022/11/19 09:29:57;;;;;;;12.50;6.60;;;;;;;;;;5070367;28;20039;-64
2022/11/19 09:32:40;;;;;;;12.00;6.30;;;;;;;;;;5068133;28;20422;-64
2022/11/19 09:35:24;;;;;;;13.10;6.53;;;;;;;;;;5069972;28;20028;-64
2022/11/19 09:38:08;;;;;;;9.90;5.63;;;;;;;;;;5068035;28;20016;-64
2022/11/19 09:40:51;;;;;;;13.93;6.53;;;;;;;;;;5068904;28;20071;-64
2022/11/19 09:43:36;;;;;;;11.80;5.73;;;;;;;;;;5070493;28;20012;-64
2022/11/19 09:46:20;;;;;;;12.60;7.27;;;;;;;;;;5070426;28;20027;-64
2022/11/19 09:49:03;;;;;;;12.50;6.13;;;;;;;;;;5069779;28;20439;-64
2022/11/19 09:51:47;;;;;;;12.03;6.50;;;;;;;;;;5069205;28;20115;-64
2022/11/19 09:54:31;;;;;;;12.00;6.30;;;;;;;;;;5070459;28;20012;-64
2022/11/19 09:57:15;;;;;;;12.37;5.97;;;;;;;;;;5071772;28;20024;-64
2022/11/19 09:59:58;;;;;;;11.37;6.30;;;;;;;;;;5070398;28;20142;-64
2022/11/19 10:02:42;;;;;;;13.43;6.73;;;;;;;;;;5071654;28;20024;-64
2022/11/19 10:05:26;;;;;;;14.90;6.37;;;;;;;;;;5065441;28;21032;-64
2022/11/19 10:08:10;;;;;;;11.60;5.70;;;;;;;;;;5068206;28;20039;-65
2022/11/19 10:10:53;;;;;;;18.17;9.00;;;;;;;;;;5063769;28;20020;-65
2022/11/19 10:13:37;;;;;;;11.03;5.30;;;;;;;;;;5061433;28;20021;-65
2022/11/19 10:16:21;;;;;;;10.43;5.50;;;;;;;;;;5063887;28;20476;-65
2022/11/19 10:19:05;;;;;;;5.50;2.97;;;;;;;;;;5067312;28;20072;-65
2022/11/19 10:21:48;;;;;;;12.37;6.93;;;;;;;;;;5064334;28;20028;-64
2022/11/19 10:24:32;;;;;;;11.00;5.77;;;;;;;;;;5067907;28;20364;-64
2022/11/19 10:27:16;;;;;;;9.63;4.67;;;;;;;;;;5063012;28;20147;-65
2022/11/19 10:30:00;;;;;;;10.17;5.13;;;;;;;;;;5068524;28;20510;-64
2022/11/19 10:32:44;;;;;;;11.47;5.70;;;;;;;;;;5068154;28;20025;-64
2022/11/19 10:35:27;;;;;;;12.33;5.80;;;;;;;;;;5064979;28;20502;-65
2022/11/19 10:38:11;;;;;;;9.80;5.20;;;;;;;;;;5072269;28;20103;-65
2022/11/19 10:40:55;;;;;;;7.03;3.27;;;;;;;;;;5058914;28;20399;-65
2022/11/19 10:43:40;;;;;;;13.43;6.13;;;;;;;;;;5073568;28;20020;-65
2022/11/19 10:46:24;;;;;;;8.53;4.83;;;;;;;;;;5070056;28;20139;-65
2022/11/19 10:49:08;;;;;;;15.50;5.37;;;;;;;;;;5070683;28;20458;-65
2022/11/19 10:51:52;;;;;;;8.83;5.13;;;;;;;;;;5071606;28;20017;-65
2022/11/19 10:54:36;;;;;;;6.63;3.33;;;;;;;;;;5069510;28;20096;-65
2022/11/19 10:57:19;;;;;;;9.00;4.30;;;;;;;;;;5070729;28;20016;-64
2022/11/19 11:00:03;;;;;;;7.37;3.70;;;;;;;;;;5070387;28;20020;-64
2022/11/19 11:02:47;;;;;;;6.13;3.20;;;;;;;;;;5069371;28;20028;-64
2022/11/19 11:05:31;;;;;;;7.40;3.93;;;;;;;;;;5067817;28;20025;-64
2022/11/19 11:08:14;;;;;;;49.03;8.00;;;;;;;;;;5072674;28;20032;-64
2022/11/19 11:10:58;;;;;;;15.70;5.67;;;;;;;;;;5064552;28;20104;-64
2022/11/19 11:16:45;;;;;;;9.73;4.67;;;;;;;;;;5065266;28;20015;-64
2022/11/19 11:19:29;;;;;;;9.73;5.03;;;;;;;;;;5061560;28;20033;-64
2022/11/19 11:22:13;;;;;;;8.13;4.27;;;;;;;;;;5066515;28;20049;-65
2022/11/19 11:24:56;;;;;;;10.03;4.70;;;;;;;;;;5065227;28;20023;-65
2022/11/19 11:27:40;;;;;;;5.37;2.70;;;;;;;;;;5063938;28;20106;-65
2022/11/19 11:30:24;;;;;;;9.57;4.97;;;;;;;;;;5073640;28;20030;-65
2022/11/19 11:33:08;;;;;;;8.97;4.53;;;;;;;;;;5065504;28;20021;-64
2022/11/19 11:35:52;;;;;;;8.37;4.03;;;;;;;;;;5065009;28;20033;-65
2022/11/19 11:38:35;;;;;;;22.50;5.47;;;;;;;;;;5060210;28;20020;-65
2022/11/19 11:41:19;;;;;;;14.60;6.83;;;;;;;;;;5059599;28;20056;-65
2022/11/19 11:44:03;;;;;;;8.03;3.43;;;;;;;;;;5069963;28;20107;-66
2022/11/19 11:46:47;;;;;;;11.07;5.37;;;;;;;;;;5067739;28;20020;-65
2022/11/19 11:49:31;;;;;;;10.70;5.27;;;;;;;;;;5054062;28;20020;-64
2022/11/19 11:52:15;;;;;;;9.27;4.40;;;;;;;;;;5060131;28;20028;-64
2022/11/19 11:54:59;;;;;;;8.07;4.60;;;;;;;;;;5060878;28;20031;-64
2022/11/19 11:57:43;;;;;;;8.77;4.53;;;;;;;;;;5073079;28;20042;-65
2022/11/19 12:00:27;;;;;;;8.17;4.17;;;;;;;;;;5073938;28;20024;-64
2022/11/19 12:03:12;;;;;;;11.00;5.43;;;;;;;;;;5066253;28;20028;-64
2022/11/19 12:05:56;;;;;;;8.83;4.70;;;;;;;;;;5071575;28;20024;-64
2022/11/19 12:08:40;;;;;;;9.23;4.63;;;;;;;;;;5072042;28;20078;-64
2022/11/19 12:11:24;;;;;;;9.30;4.50;;;;;;;;;;5070592;28;20074;-64
2022/11/19 12:14:08;;;;;;;10.07;5.17;;;;;;;;;;5067503;28;20039;-64
2022/11/19 12:16:52;;;;;;;9.57;4.77;;;;;;;;;;5063356;28;20032;-64
2022/11/19 12:19:36;;;;;;;10.70;5.60;;;;;;;;;;5068875;28;20099;-64
2022/11/19 12:22:20;;;;;;;11.53;5.53;;;;;;;;;;5060366;28;20107;-64
2022/11/19 12:25:04;;;;;;;7.30;3.73;;;;;;;;;;5058002;28;20472;-64
2022/11/19 12:27:48;;;;;;;9.60;4.80;;;;;;;;;;5069544;28;20079;-64
2022/11/19 12:30:32;;;;;;;10.10;5.07;;;;;;;;;;5054036;28;20028;-64
2022/11/19 12:33:16;;;;;;;9.23;3.73;;;;;;;;;;5057687;28;20041;-65
2022/11/19 12:36:00;;;;;;;11.60;4.83;;;;;;;;;;5061331;28;20408;-64
2022/11/19 12:38:43;;;;;;;10.03;5.50;;;;;;;;;;5062332;28;20056;-64
2022/11/19 12:41:27;;;;;;;5.97;3.23;;;;;;;;;;5058898;28;20107;-64
2022/11/19 12:44:11;;;;;;;9.27;4.30;;;;;;;;;;5061928;28;20037;-64
2022/11/19 12:46:55;;;;;;;10.53;4.77;;;;;;;;;;5065972;28;20058;-64
2022/11/19 12:49:38;;;;;;;10.23;4.80;;;;;;;;;;5066843;28;20112;-65
2022/11/19 12:52:22;;;;;;;10.50;5.47;;;;;;;;;;5058736;28;20457;-64
2022/11/19 12:55:06;;;;;;;10.93;5.40;;;;;;;;;;5061134;28;20028;-65
2022/11/19 12:57:50;;;;;;;12.27;5.50;;;;;;;;;;5069779;28;20289;-64
2022/11/19 13:00:35;;;;;;;9.50;5.57;;;;;;;;;;5061593;28;20028;-65
2022/11/19 13:03:20;;;;;;;9.27;4.50;;;;;;;;;;5058043;28;20094;-64
2022/11/19 13:06:04;;;;;;;9.17;4.90;;;;;;;;;;5060902;28;20040;-64
2022/11/19 13:08:48;;;;;;;8.50;4.27;;;;;;;;;;5061038;28;20103;-65
2022/11/19 13:11:35;;;;;;;9.93;4.77;;;;;;;;;;5070551;28;20086;-65
2022/11/19 13:14:19;;;;;;;10.77;5.43;;;;;;;;;;5068441;28;20032;-65
2022/11/19 13:17:03;;;;;;;10.83;5.40;;;;;;;;;;5064815;28;20039;-64
2022/11/19 13:19:46;;;;;;;10.67;5.37;;;;;;;;;;5065208;28;20090;-65
2022/11/19 13:22:31;;;;;;;11.27;5.90;;;;;;;;;;5066990;28;20556;-65
2022/11/19 13:25:14;;;;;;;11.60;5.90;;;;;;;;;;5063091;28;20032;-64
2022/11/19 13:27:58;;;;;;;9.43;4.60;;;;;;;;;;5061302;28;20063;-65
2022/11/19 13:30:42;;;;;;;10.67;5.47;;;;;;;;;;5064538;28;20033;-64
2022/11/19 13:33:26;;;;;;;11.00;4.80;;;;;;;;;;5061698;28;20038;-65
2022/11/19 13:36:10;;;;;;;9.50;4.90;;;;;;;;;;5056307;28;20171;-64
2022/11/19 13:38:54;;;;;;;9.17;5.07;;;;;;;;;;5059698;28;20547;-64
2022/11/19 13:44:37;;;;;;;11.33;5.10;;;;;;;;;;5061759;28;20383;-64
2022/11/19 13:44:41;;;;;;;11.10;5.73;;;;;;;;;;5068411;28;20040;-64
2022/11/19 13:47:25;;;;;;;9.63;4.87;;;;;;;;;;5060919;28;20083;-64
2022/11/19 13:50:09;;;;;;;10.87;5.93;;;;;;;;;;5059957;28;20476;-64
2022/11/19 13:52:53;;;;;;;12.37;5.00;;;;;;;;;;5067222;28;20028;-64
2022/11/19 13:55:36;;;;;;;9.80;5.33;;;;;;;;;;5066078;28;20731;-65
2022/11/19 13:58:20;;;;;;;10.60;5.97;;;;;;;;;;5063681;28;20411;-64
2022/11/19 14:01:04;;;;;;;11.07;5.83;;;;;;;;;;5058009;28;20032;-65
2022/11/19 14:03:48;;;;;;;11.17;5.83;;;;;;;;;;5061513;28;20039;-64
2022/11/19 14:06:32;;;;;;;10.07;5.77;;;;;;;;;;5064321;28;20029;-64
2022/11/19 14:09:15;;;;;;;9.97;5.40;;;;;;;;;;5063441;28;20041;-64
2022/11/19 14:11:59;;;;;;;10.60;5.73;;;;;;;;;;5063603;28;20108;-64
2022/11/19 14:26:55;;;;;;;10.40;5.93;;;;;;;;;;5066031;28;20499;-64
2022/11/19 14:29:39;;;;;;;10.73;5.63;;;;;;;;;;5058092;28;20484;-64
2022/11/19 14:32:23;;;;;;;10.20;5.47;;;;;;;;;;5062208;28;20122;-64
2022/11/19 14:35:07;;;;;;;11.30;5.70;;;;;;;;;;5058473;28;20039;-64
2022/11/19 14:37:51;;;;;;;10.23;5.40;;;;;;;;;;5063607;28;20044;-64
2022/11/19 14:40:35;;;;;;;9.87;5.70;;;;;;;;;;5057947;28;20095;-64
2022/11/19 14:46:22;;;;;;;11.83;5.97;;;;;;;;;;5059756;28;20163;-64
2022/11/19 14:49:06;;;;;;;11.53;5.77;;;;;;;;;;5049245;28;20036;-64
2022/11/19 14:51:50;;;;;;;10.83;5.80;;;;;;;;;;5056705;28;20495;-64
2022/11/19 14:54:33;;;;;;;9.87;5.57;;;;;;;;;;5063260;28;20036;-64
2022/11/19 14:57:17;;;;;;;13.63;6.90;;;;;;;;;;5058090;28;20035;-65
2022/11/19 15:00:01;;;;;;;14.97;7.10;;;;;;;;;;5063672;28;20064;-64
2022/11/19 15:02:45;;;;;;;16.00;7.63;;;;;;;;;;5065146;28;20025;-64
2022/11/19 15:05:29;;;;;;;17.97;7.83;;;;;;;;;;5065437;28;20033;-64
2022/11/19 15:08:13;;;;;;;18.13;7.57;;;;;;;;;;5062069;28;20032;-64
2022/11/19 15:10:56;;;;;;;14.07;6.60;;;;;;;;;;5057231;28;20064;-64
2022/11/19 15:13:40;;;;;;;13.93;7.03;;;;;;;;;;5069485;28;20032;-64
2022/11/19 15:16:24;;;;;;;12.97;6.60;;;;;;;;;;5067919;28;20075;-64
2022/11/19 15:19:08;;;;;;;13.07;7.20;;;;;;;;;;5070973;28;20531;-64
2022/11/19 15:21:52;;;;;;;17.93;7.63;;;;;;;;;;5074494;28;20020;-64
2022/11/19 15:24:35;;;;;;;16.27;7.07;;;;;;;;;;5075385;28;20020;-64
2022/11/19 15:27:19;;;;;;;18.03;7.30;;;;;;;;;;5073168;28;20043;-64
2022/11/19 15:30:03;;;;;;;15.80;7.27;;;;;;;;;;5070535;28;20044;-64
2022/11/19 15:32:47;;;;;;;17.17;7.17;;;;;;;;;;5068353;28;20032;-64
2022/11/19 15:35:31;;;;;;;14.40;7.03;;;;;;;;;;5060780;28;20036;-64
2022/11/19 15:38:15;;;;;;;16.43;8.37;;;;;;;;;;5064399;28;20131;-64
2022/11/19 15:40:59;;;;;;;17.63;8.17;;;;;;;;;;5069118;28;20040;-64
2022/11/19 15:43:43;;;;;;;19.97;8.53;;;;;;;;;;5072929;28;20025;-64
2022/11/19 15:46:27;;;;;;;21.93;9.73;;;;;;;;;;5072439;28;20036;-64
2022/11/19 15:49:11;;;;;;;23.10;11.60;;;;;;;;;;5067470;28;20391;-64
2022/11/19 15:51:55;;;;;;;23.20;10.60;;;;;;;;;;5071717;28;20032;-64
2022/11/19 15:54:39;;;;;;;35.20;15.70;;;;;;;;;;5069045;28;20020;-63
2022/11/19 15:57:23;;;;;;;27.00;12.23;;;;;;;;;;5070070;28;20028;-64
2022/11/19 16:00:06;;;;;;;28.60;13.20;;;;;;;;;;5070808;28;20036;-64
2022/11/19 16:02:50;;;;;;;28.70;12.77;;;;;;;;;;5070868;28;20028;-63
2022/11/19 16:05:34;;;;;;;27.20;13.13;;;;;;;;;;5075610;28;20055;-64
2022/11/19 16:08:18;;;;;;;25.87;13.43;;;;;;;;;;5068321;28;20286;-64
2022/11/19 16:20:11;;;;;;;29.93;13.93;;;;;;;;;;5067841;28;20086;-64
2022/11/19 16:22:55;;;;;;;27.07;14.07;;;;;;;;;;5069332;28;20040;-64
2022/11/19 16:25:39;;;;;;;32.33;15.83;;;;;;;;;;5072593;28;20794;-64
2022/11/19 16:28:23;;;;;;;33.47;18.10;;;;;;;;;;5072740;28;20025;-64
2022/11/19 16:31:06;;;;;;;32.70;16.93;;;;;;;;;;5063563;28;20278;-64
2022/11/19 16:33:50;;;;;;;33.50;17.60;;;;;;;;;;5058244;28;20750;-64
2022/11/19 16:36:34;;;;;;;37.57;18.20;;;;;;;;;;5062535;28;20333;-64
2022/11/19 16:39:18;;;;;;;34.97;18.87;;;;;;;;;;5068984;28;20293;-64
2022/11/19 16:42:17;;;;;;;37.50;17.80;;;;;;;;;;5060409;28;20315;-64
2022/11/19 16:45:01;;;;;;;41.03;19.63;;;;;;;;;;5061802;28;20380;-64
2022/11/19 16:47:44;;;;;;;38.77;19.60;;;;;;;;;;5071386;28;20266;-64
2022/11/19 16:50:30;;;;;;;50.37;23.23;;;;;;;;;;5057376;28;21102;-64
2022/11/19 16:53:14;;;;;;;44.53;21.20;;;;;;;;;;5064173;28;20358;-65